TAF KROC
KROC 270541Z 2706/2806 29014G22KT P6SM VCSH OVC025 FM271500 28012G22KT P6SM SCT025 BKN035 FM272000 28012G18KT P6SM BKN100 FM272300 26008KT P6SM SCT250 FM280300 26005KT P6SM BKN100=
METAR KROC
WC KROC
WS KROC
WV KROC